Time,TemperatureF,DewpointF,PressureIn,WindDirection,WindDirectionDegrees,WindSpeedMPH,WindSpeedGustMPH,Humidity,HourlyPrecipIn,Conditions,Clouds,dailyrainin,SoftwareType,DateUTC
2013-05-14 00:11:00,51.2,40.0,30.21,East,86,0.0,0.0,65,0.00,,,0.00,weatherlink.com 1.10,2013-05-14 04:11:00,
2013-05-14 00:26:00,50.7,40.0,30.22,East,86,0.0,0.0,67,0.00,,,0.00,weatherlink.com 1.10,2013-05-14 04:26:00,
2013-05-14 00:41:00,50.1,39.0,30.22,East,86,0.0,0.0,67,0.00,,,0.00,weatherlink.com 1.10,2013-05-14 04:41:00,
2013-05-14 00:56:00,49.3,40.0,30.22,East,85,0.0,0.0,70,0.00,,,0.00,weatherlink.com 1.10,2013-05-14 04:56:00,
2013-05-14 01:11:00,48.9,40.0,30.21,East,86,0.0,0.0,71,0.00,,,0.00,weatherlink.com 1.10,2013-05-14 05:11:00,
2013-05-14 01:26:00,48.5,39.0,30.22,East,86,0.0,0.0,71,0.00,,,0.00,weatherlink.com 1.10,2013-05-14 05:26:00,
2013-05-14 01:41:00,48.0,39.0,30.22,East,86,0.0,0.0,71,0.00,,,0.00,weatherlink.com 1.10,2013-05-14 05:41:00,
2013-05-14 01:56:00,47.8,39.0,30.22,East,86,0.0,0.0,72,0.00,,,0.00,weatherlink.com 1.10,2013-05-14 05:56:00,
2013-05-14 02:11:00,47.6,39.0,30.21,East,86,0.0,0.0,72,0.00,,,0.00,weatherlink.com 1.10,2013-05-14 06:11:00,
2013-05-14 02:26:00,47.3,39.0,30.21,East,86,0.0,0.0,72,0.00,,,0.00,weatherlink.com 1.10,2013-05-14 06:26:00,
2013-05-14 02:41:00,46.8,38.0,30.21,East,86,0.0,0.0,72,0.00,,,0.00,weatherlink.com 1.10,2013-05-14 06:41:00,
2013-05-14 02:56:00,46.3,38.0,30.21,East,86,0.0,0.0,73,0.00,,,0.00,weatherlink.com 1.10,2013-05-14 06:56:00,
2013-05-14 03:11:00,45.8,38.0,30.22,East,86,0.0,0.0,74,0.00,,,0.00,weatherlink.com 1.10,2013-05-14 07:11:00,
2013-05-14 03:26:00,45.4,38.0,30.22,East,86,0.0,0.0,75,0.00,,,0.00,weatherlink.com 1.10,2013-05-14 07:26:00,
2013-05-14 03:41:00,45.1,38.0,30.23,East,86,0.0,0.0,77,0.00,,,0.00,weatherlink.com 1.10,2013-05-14 07:41:00,
2013-05-14 03:56:00,44.8,38.0,30.22,East,86,0.0,0.0,77,0.00,,,0.00,weatherlink.com 1.10,2013-05-14 07:56:00,
2013-05-14 04:11:00,44.7,39.0,30.23,East,86,0.0,0.0,79,0.00,,,0.00,weatherlink.com 1.10,2013-05-14 08:11:00,
2013-05-14 04:26:00,44.4,38.0,30.23,East,86,0.0,0.0,79,0.00,,,0.00,weatherlink.com 1.10,2013-05-14 08:26:00,
2013-05-14 04:41:00,44.1,38.0,30.23,East,86,0.0,0.0,80,0.00,,,0.00,weatherlink.com 1.10,2013-05-14 08:41:00,
2013-05-14 04:56:00,43.9,38.0,30.23,East,86,0.0,0.0,80,0.00,,,0.00,weatherlink.com 1.10,2013-05-14 08:56:00,
2013-05-14 05:11:00,43.7,38.0,30.23,East,86,0.0,0.0,81,0.00,,,0.00,weatherlink.com 1.10,2013-05-14 09:11:00,
2013-05-14 05:27:00,43.4,38.0,30.23,East,86,0.0,0.0,82,0.00,,,0.00,weatherlink.com 1.10,2013-05-14 09:27:00,
2013-05-14 05:42:00,43.2,38.0,30.24,East,86,0.0,0.0,82,0.00,,,0.00,weatherlink.com 1.10,2013-05-14 09:42:00,
2013-05-14 05:57:00,43.0,38.0,30.24,East,86,0.0,0.0,82,0.00,,,0.00,weatherlink.com 1.10,2013-05-14 09:57:00,
2013-05-14 06:12:00,42.9,38.0,30.25,East,86,0.0,0.0,83,0.00,,,0.00,weatherlink.com 1.10,2013-05-14 10:12:00,
2013-05-14 06:27:00,42.9,38.0,30.25,East,86,0.0,0.0,84,0.00,,,0.00,weatherlink.com 1.10,2013-05-14 10:27:00,
2013-05-14 06:42:00,42.8,38.0,30.25,East,86,0.0,0.0,84,0.00,,,0.00,weatherlink.com 1.10,2013-05-14 10:42:00,
2013-05-14 06:57:00,42.8,38.0,30.26,East,86,0.0,0.0,84,0.00,,,0.00,weatherlink.com 1.10,2013-05-14 10:57:00,
2013-05-14 07:12:00,43.0,39.0,30.27,East,86,0.0,0.0,85,0.00,,,0.00,weatherlink.com 1.10,2013-05-14 11:12:00,
2013-05-14 07:27:00,43.4,40.0,30.27,East,86,0.0,0.0,86,0.00,,,0.00,weatherlink.com 1.10,2013-05-14 11:27:00,
2013-05-14 07:42:00,44.1,40.0,30.27,East,86,0.0,0.0,86,0.00,,,0.00,weatherlink.com 1.10,2013-05-14 11:42:00,
2013-05-14 07:57:00,44.8,41.0,30.28,East,86,0.0,0.0,86,0.00,,,0.00,weatherlink.com 1.10,2013-05-14 11:57:00,
2013-05-14 08:12:00,45.7,42.0,30.28,East,86,0.0,0.0,87,0.00,,,0.00,weatherlink.com 1.10,2013-05-14 12:12:00,
2013-05-14 08:27:00,46.6,42.0,30.28,East,86,0.0,0.0,85,0.00,,,0.00,weatherlink.com 1.10,2013-05-14 12:27:00,
2013-05-14 08:42:00,47.9,42.0,30.28,North,360,0.0,0.0,79,0.00,,,0.00,weatherlink.com 1.10,2013-05-14 12:42:00,
2013-05-14 08:57:00,49.4,41.0,30.28,NNW,348,0.0,0.0,74,0.00,,,0.00,weatherlink.com 1.10,2013-05-14 12:57:00,
2013-05-14 09:12:00,50.7,38.0,30.28,NNW,348,0.0,0.0,61,0.00,,,0.00,weatherlink.com 1.10,2013-05-14 13:12:00,
2013-05-14 09:27:00,52.2,40.0,30.27,NNW,348,0.0,0.0,64,0.00,,,0.00,weatherlink.com 1.10,2013-05-14 13:27:00,
2013-05-14 09:42:00,53.4,37.0,30.27,NNW,348,0.0,0.0,54,0.00,,,0.00,weatherlink.com 1.10,2013-05-14 13:42:00,
2013-05-14 09:57:00,55.0,41.0,30.27,North,360,0.0,0.0,60,0.00,,,0.00,weatherlink.com 1.10,2013-05-14 13:57:00,
2013-05-14 10:12:00,56.5,38.0,30.28,North,360,0.0,0.0,50,0.00,,,0.00,weatherlink.com 1.10,2013-05-14 14:12:00,
2013-05-14 10:27:00,57.8,39.0,30.28,East,79,0.0,0.0,49,0.00,,,0.00,weatherlink.com 1.10,2013-05-14 14:27:00,
2013-05-14 10:42:00,59.7,41.0,30.29,NW,321,0.0,0.0,50,0.00,,,0.00,weatherlink.com 1.10,2013-05-14 14:42:00,
2013-05-14 10:57:00,61.4,39.0,30.28,North,360,0.0,0.0,43,0.00,,,0.00,weatherlink.com 1.10,2013-05-14 14:57:00,
2013-05-14 11:12:00,62.5,38.0,30.28,NW,322,0.0,0.0,41,0.00,,,0.00,weatherlink.com 1.10,2013-05-14 15:12:00,
2013-05-14 11:27:00,63.7,40.0,30.27,East,84,0.0,0.0,42,0.00,,,0.00,weatherlink.com 1.10,2013-05-14 15:27:00,
2013-05-14 11:42:00,64.6,40.0,30.27,NE,47,0.0,0.0,41,0.00,,,0.00,weatherlink.com 1.10,2013-05-14 15:42:00,
2013-05-14 11:57:00,65.3,37.0,30.26,South,188,0.0,0.0,35,0.00,,,0.00,weatherlink.com 1.10,2013-05-14 15:57:00,
2013-05-14 12:12:00,65.0,38.0,30.26,South,178,0.0,0.0,37,0.00,,,0.00,weatherlink.com 1.10,2013-05-14 16:12:00,
2013-05-14 12:28:00,64.7,38.0,30.25,South,180,0.0,0.0,37,0.00,,,0.00,weatherlink.com 1.10,2013-05-14 16:28:00,
2013-05-14 12:43:00,64.6,41.0,30.25,North,360,0.0,0.0,43,0.00,,,0.00,weatherlink.com 1.10,2013-05-14 16:43:00,
2013-05-14 12:58:00,65.7,38.0,30.23,WNW,283,0.0,0.0,36,0.00,,,0.00,weatherlink.com 1.10,2013-05-14 16:58:00,
2013-05-14 13:13:00,66.8,37.0,30.22,North,360,0.0,0.0,33,0.00,,,0.00,weatherlink.com 1.10,2013-05-14 17:13:00,
2013-05-14 13:28:00,67.6,42.0,30.21,North,351,0.0,0.0,40,0.00,,,0.00,weatherlink.com 1.10,2013-05-14 17:28:00,
2013-05-14 13:43:00,67.8,42.0,30.21,North,11,0.0,0.0,39,0.00,,,0.00,weatherlink.com 1.10,2013-05-14 17:43:00,
2013-05-14 13:58:00,68.3,38.0,30.21,NW,324,0.0,0.0,33,0.00,,,0.00,weatherlink.com 1.10,2013-05-14 17:58:00,
2013-05-14 14:13:00,68.8,41.0,30.21,East,89,0.0,0.0,36,0.00,,,0.00,weatherlink.com 1.10,2013-05-14 18:13:00,
2013-05-14 14:28:00,68.9,38.0,30.21,ESE,105,0.0,0.0,32,0.00,,,0.00,weatherlink.com 1.10,2013-05-14 18:28:00,
2013-05-14 14:43:00,68.4,36.0,30.19,South,186,0.0,0.0,31,0.00,,,0.00,weatherlink.com 1.10,2013-05-14 18:43:00,
2013-05-14 14:58:00,68.1,38.0,30.18,SSE,153,0.0,0.0,33,0.00,,,0.00,weatherlink.com 1.10,2013-05-14 18:58:00,
2013-05-14 15:13:00,68.2,39.0,30.17,SSW,200,0.0,0.0,35,0.00,,,0.00,weatherlink.com 1.10,2013-05-14 19:13:00,
2013-05-14 15:28:00,68.0,38.0,30.17,SSW,200,0.0,0.0,33,0.00,,,0.00,weatherlink.com 1.10,2013-05-14 19:28:00,
2013-05-14 15:43:00,68.3,40.0,30.16,SW,214,0.0,0.0,35,0.00,,,0.00,weatherlink.com 1.10,2013-05-14 19:43:00,
2013-05-14 15:58:00,68.6,40.0,30.16,SSW,207,0.0,0.0,36,0.00,,,0.00,weatherlink.com 1.10,2013-05-14 19:58:00,
2013-05-14 16:13:00,68.5,38.0,30.15,South,169,0.0,0.0,33,0.00,,,0.00,weatherlink.com 1.10,2013-05-14 20:13:00,
2013-05-14 16:28:00,68.6,41.0,30.15,SSE,168,0.0,0.0,37,0.00,,,0.00,weatherlink.com 1.10,2013-05-14 20:28:00,
2013-05-14 16:43:00,68.0,44.0,30.15,South,169,0.0,0.0,42,0.00,,,0.00,weatherlink.com 1.10,2013-05-14 20:43:00,
2013-05-14 16:58:00,67.9,43.0,30.15,South,169,0.0,0.0,41,0.00,,,0.00,weatherlink.com 1.10,2013-05-14 20:58:00,
2013-05-14 17:13:00,68.0,42.0,30.15,South,172,0.0,0.0,39,0.00,,,0.00,weatherlink.com 1.10,2013-05-14 21:13:00,
2013-05-14 17:28:00,67.6,44.0,30.14,South,173,0.0,0.0,42,0.00,,,0.00,weatherlink.com 1.10,2013-05-14 21:28:00,
2013-05-14 17:43:00,67.4,45.0,30.14,South,172,0.0,0.0,44,0.00,,,0.00,weatherlink.com 1.10,2013-05-14 21:43:00,
2013-05-14 17:58:00,67.4,46.0,30.14,South,169,0.0,0.0,46,0.00,,,0.00,weatherlink.com 1.10,2013-05-14 21:58:00,
2013-05-14 18:13:00,67.5,43.0,30.14,South,169,0.0,0.0,41,0.00,,,0.00,weatherlink.com 1.10,2013-05-14 22:13:00,
2013-05-14 18:28:00,67.5,43.0,30.14,South,172,0.0,0.0,41,0.00,,,0.00,weatherlink.com 1.10,2013-05-14 22:28:00,
2013-05-14 18:43:00,67.2,44.0,30.13,South,172,0.0,0.0,44,0.00,,,0.00,weatherlink.com 1.10,2013-05-14 22:43:00,
2013-05-14 18:58:00,66.8,44.0,30.12,South,172,0.0,0.0,44,0.00,,,0.00,weatherlink.com 1.10,2013-05-14 22:58:00,
2013-05-14 19:13:00,66.7,46.0,30.12,South,173,0.0,0.0,48,0.00,,,0.00,weatherlink.com 1.10,2013-05-14 23:13:00,
2013-05-14 19:28:00,66.5,46.0,30.11,South,172,0.0,0.0,48,0.00,,,0.00,weatherlink.com 1.10,2013-05-14 23:28:00,
2013-05-14 19:43:00,65.9,48.0,30.12,South,172,0.0,0.0,52,0.00,,,0.00,weatherlink.com 1.10,2013-05-14 23:43:00,
2013-05-14 19:58:00,65.1,46.0,30.12,South,172,0.0,0.0,51,0.00,,,0.00,weatherlink.com 1.10,2013-05-14 23:58:00,
2013-05-14 20:13:00,64.0,48.0,30.12,South,171,0.0,0.0,56,0.00,,,0.00,weatherlink.com 1.10,2013-05-15 00:13:00,
2013-05-14 20:28:00,62.9,47.0,30.12,South,171,0.0,0.0,56,0.00,,,0.00,weatherlink.com 1.10,2013-05-15 00:28:00,
2013-05-14 20:43:00,62.1,47.0,30.12,South,171,0.0,0.0,58,0.00,,,0.00,weatherlink.com 1.10,2013-05-15 00:43:00,
2013-05-14 20:58:00,61.4,48.0,30.12,South,171,0.0,0.0,61,0.00,,,0.00,weatherlink.com 1.10,2013-05-15 00:58:00,
2013-05-14 21:13:00,60.7,47.0,30.11,South,171,0.0,0.0,62,0.00,,,0.00,weatherlink.com 1.10,2013-05-15 01:13:00,
2013-05-14 21:28:00,60.0,47.0,30.12,South,171,0.0,0.0,62,0.00,,,0.00,weatherlink.com 1.10,2013-05-15 01:28:00,
2013-05-14 21:43:00,59.4,47.0,30.12,South,171,0.0,0.0,64,0.00,,,0.00,weatherlink.com 1.10,2013-05-15 01:43:00,
2013-05-14 21:58:00,58.9,47.0,30.12,South,171,0.0,0.0,65,0.00,,,0.00,weatherlink.com 1.10,2013-05-15 01:58:00,
2013-05-14 22:13:00,58.5,47.0,30.12,South,171,0.0,0.0,66,0.00,,,0.00,weatherlink.com 1.10,2013-05-15 02:13:00,
2013-05-14 22:28:00,58.0,47.0,30.12,South,171,0.0,0.0,68,0.00,,,0.00,weatherlink.com 1.10,2013-05-15 02:28:00,
2013-05-14 22:43:00,57.7,48.0,30.12,South,171,0.0,0.0,70,0.00,,,0.00,weatherlink.com 1.10,2013-05-15 02:43:00,
2013-05-14 22:58:00,57.1,47.0,30.11,South,171,0.0,0.0,70,0.00,,,0.00,weatherlink.com 1.10,2013-05-15 02:58:00,
2013-05-14 23:13:00,56.6,47.0,30.11,South,171,0.0,0.0,70,0.00,,,0.00,weatherlink.com 1.10,2013-05-15 03:13:00,
2013-05-14 23:28:00,56.3,47.0,30.11,South,171,0.0,0.0,72,0.00,,,0.00,weatherlink.com 1.10,2013-05-15 03:28:00,
2013-05-14 23:43:00,56.0,47.0,30.11,South,171,0.0,0.0,71,0.00,,,0.00,weatherlink.com 1.10,2013-05-15 03:43:00,
2013-05-14 23:58:00,56.2,45.0,30.10,South,171,0.0,0.0,67,0.00,,,0.00,weatherlink.com 1.10,2013-05-15 03:58:00,